Mitchell, Mississippi
Current Conditions -  °F | °C
As of 1:55 PM on Sunday 23 Nov 2014 (Local Time) from KCRX Reporting Station
Drizzle Drizzle  
Wind Chill: 61°   Ceiling: 1400
Heat Index: 61°   Visibility: 9mi
Dew Point: 59°   Wind: 9mph
Humidity: 94%   Direction: 140°SE
Pressure: 29.4"   Gusts: NA
Location:  34.7808°N, 88.8865°W
Report Text: KCRX 231955Z AUTO 14008KT 9SM -DZ FEW010 BKN014 OVC023 16/15 A2940 RMK AO2
Loading
Personal Weather Stations






























Interactive Weather Map New forecast layout! Learn more

10-Day Weather Forecast

Advertisements
Track Severe Weather on mobile